Aviation Digital Data Service (ADDS)

Output produced by METARs form (0537 UTC 21 January 2019)
found at http://www.aviationweather.gov/metar/data/
 
Forecast for: PTKK (WENO IS/CHUUK , FM)
Text: PTKK 210532Z 2106/2206 04008KT P6SM FEW014 BKN120
Forecast period: 0600 UTC 21 January 2019 to 0600 UTC 22 January 2019
Forecast type: FROM: standard forecast or significant change
Winds: from the NE (40 degrees) at 9 MPH (8 knots; 4.1 m/s)
Visibility: 6 or more miles 10+ km)
Ceiling: 12000 feet AGL
Clouds: few clouds at 1400 feet AGL
broken clouds at 12000 feet AGL
Weather: no significant weather forecast for this period